sensor_id;sensor_type;location;lat;lon;timestamp;temperature;humidity
33831;DHT22;20137;48.834;8.732;2023-07-09T00:02:21;21.20;94.60
33831;DHT22;20137;48.834;8.732;2023-07-09T00:04:47;21.20;94.90
33831;DHT22;20137;48.834;8.732;2023-07-09T00:09:42;21.10;95.00
33831;DHT22;20137;48.834;8.732;2023-07-09T00:12:14;21.00;95.20
33831;DHT22;20137;48.834;8.732;2023-07-09T00:14:40;21.00;95.30
33831;DHT22;20137;48.834;8.732;2023-07-09T00:19:45;20.90;95.70
33831;DHT22;20137;48.834;8.732;2023-07-09T00:22:16;20.90;96.10
33831;DHT22;20137;48.834;8.732;2023-07-09T00:24:43;20.80;96.10
33831;DHT22;20137;48.834;8.732;2023-07-09T00:27:11;20.80;96.10
33831;DHT22;20137;48.834;8.732;2023-07-09T00:29:37;20.90;96.20
33831;DHT22;20137;48.834;8.732;2023-07-09T00:32:03;20.90;96.20
33831;DHT22;20137;48.834;8.732;2023-07-09T00:34:28;20.90;96.20
33831;DHT22;20137;48.834;8.732;2023-07-09T00:36:54;20.90;96.40
33831;DHT22;20137;48.834;8.732;2023-07-09T00:39:22;20.80;96.40
33831;DHT22;20137;48.834;8.732;2023-07-09T00:41:49;20.80;96.60
33831;DHT22;20137;48.834;8.732;2023-07-09T00:49:28;20.80;96.70
33831;DHT22;20137;48.834;8.732;2023-07-09T00:51:57;20.80;96.80
33831;DHT22;20137;48.834;8.732;2023-07-09T00:54:38;20.80;97.10
33831;DHT22;20137;48.834;8.732;2023-07-09T00:57:13;20.70;97.30
33831;DHT22;20137;48.834;8.732;2023-07-09T00:59:43;20.70;97.60
33831;DHT22;20137;48.834;8.732;2023-07-09T01:02:09;20.60;97.70
33831;DHT22;20137;48.834;8.732;2023-07-09T01:04:35;20.60;97.90
33831;DHT22;20137;48.834;8.732;2023-07-09T01:07:01;20.50;98.10
33831;DHT22;20137;48.834;8.732;2023-07-09T01:09:27;20.50;98.30
33831;DHT22;20137;48.834;8.732;2023-07-09T01:11:53;20.50;98.60
33831;DHT22;20137;48.834;8.732;2023-07-09T01:14:22;20.40;98.60
33831;DHT22;20137;48.834;8.732;2023-07-09T01:17:02;20.40;98.80
33831;DHT22;20137;48.834;8.732;2023-07-09T01:19:43;20.30;99.10
33831;DHT22;20137;48.834;8.732;2023-07-09T01:22:14;20.30;99.10
33831;DHT22;20137;48.834;8.732;2023-07-09T01:27:29;20.20;99.30
33831;DHT22;20137;48.834;8.732;2023-07-09T01:29:56;20.20;99.40
33831;DHT22;20137;48.834;8.732;2023-07-09T01:32:23;20.10;99.50
33831;DHT22;20137;48.834;8.732;2023-07-09T01:34:51;20.20;99.70
33831;DHT22;20137;48.834;8.732;2023-07-09T01:37:21;20.20;99.70
33831;DHT22;20137;48.834;8.732;2023-07-09T01:39:48;20.20;99.90
33831;DHT22;20137;48.834;8.732;2023-07-09T01:42:16;20.30;99.90
33831;DHT22;20137;48.834;8.732;2023-07-09T01:44:43;20.30;99.70
33831;DHT22;20137;48.834;8.732;2023-07-09T01:47:09;20.30;99.90
33831;DHT22;20137;48.834;8.732;2023-07-09T01:49:35;20.20;99.90
33831;DHT22;20137;48.834;8.732;2023-07-09T01:52:01;20.20;99.90
33831;DHT22;20137;48.834;8.732;2023-07-09T01:54:31;20.20;99.90
33831;DHT22;20137;48.834;8.732;2023-07-09T01:57:14;20.20;99.90
33831;DHT22;20137;48.834;8.732;2023-07-09T01:59:41;20.20;99.90
33831;DHT22;20137;48.834;8.732;2023-07-09T02:02:10;20.10;99.90
33831;DHT22;20137;48.834;8.732;2023-07-09T02:04:40;20.10;99.90
33831;DHT22;20137;48.834;8.732;2023-07-09T02:07:08;20.10;99.90
33831;DHT22;20137;48.834;8.732;2023-07-09T02:09:33;20.10;99.90
33831;DHT22;20137;48.834;8.732;2023-07-09T02:11:59;20.00;99.90
33831;DHT22;20137;48.834;8.732;2023-07-09T02:14:25;20.00;99.90
33831;DHT22;20137;48.834;8.732;2023-07-09T02:16:50;20.00;99.90
33831;DHT22;20137;48.834;8.732;2023-07-09T02:19:16;20.00;99.90
33831;DHT22;20137;48.834;8.732;2023-07-09T02:21:42;20.00;99.90
33831;DHT22;20137;48.834;8.732;2023-07-09T02:24:07;20.00;99.90
33831;DHT22;20137;48.834;8.732;2023-07-09T02:26:33;20.00;99.90
33831;DHT22;20137;48.834;8.732;2023-07-09T02:28:59;20.00;99.90
33831;DHT22;20137;48.834;8.732;2023-07-09T02:31:24;20.00;99.90
33831;DHT22;20137;48.834;8.732;2023-07-09T02:33:50;20.00;99.90
33831;DHT22;20137;48.834;8.732;2023-07-09T02:36:16;19.90;99.90
33831;DHT22;20137;48.834;8.732;2023-07-09T02:38:41;19.90;99.90
33831;DHT22;20137;48.834;8.732;2023-07-09T02:41:07;19.80;99.90
33831;DHT22;20137;48.834;8.732;2023-07-09T02:43:33;19.80;99.90
33831;DHT22;20137;48.834;8.732;2023-07-09T02:45:58;19.70;99.90
33831;DHT22;20137;48.834;8.732;2023-07-09T02:48:24;19.70;99.90
33831;DHT22;20137;48.834;8.732;2023-07-09T02:50:50;19.80;99.90
33831;DHT22;20137;48.834;8.732;2023-07-09T02:53:16;19.80;99.90
33831;DHT22;20137;48.834;8.732;2023-07-09T02:55:41;19.80;99.90
33831;DHT22;20137;48.834;8.732;2023-07-09T02:58:07;19.70;99.90
33831;DHT22;20137;48.834;8.732;2023-07-09T03:00:33;19.70;99.90
33831;DHT22;20137;48.834;8.732;2023-07-09T03:03:02;19.70;99.90
33831;DHT22;20137;48.834;8.732;2023-07-09T03:05:31;19.60;99.90
33831;DHT22;20137;48.834;8.732;2023-07-09T03:07:56;19.60;99.90
33831;DHT22;20137;48.834;8.732;2023-07-09T03:10:22;19.60;99.90
33831;DHT22;20137;48.834;8.732;2023-07-09T03:12:48;19.50;99.90
33831;DHT22;20137;48.834;8.732;2023-07-09T03:15:14;19.50;99.90
33831;DHT22;20137;48.834;8.732;2023-07-09T03:17:40;19.50;99.90
33831;DHT22;20137;48.834;8.732;2023-07-09T03:20:09;19.50;99.90
33831;DHT22;20137;48.834;8.732;2023-07-09T03:22:35;19.50;99.90
33831;DHT22;20137;48.834;8.732;2023-07-09T03:25:01;19.50;99.90
33831;DHT22;20137;48.834;8.732;2023-07-09T03:27:26;19.50;99.90
33831;DHT22;20137;48.834;8.732;2023-07-09T03:29:52;19.50;99.90
33831;DHT22;20137;48.834;8.732;2023-07-09T03:32:18;19.50;99.90
33831;DHT22;20137;48.834;8.732;2023-07-09T03:34:43;19.40;99.90
33831;DHT22;20137;48.834;8.732;2023-07-09T03:37:09;19.40;99.90
33831;DHT22;20137;48.834;8.732;2023-07-09T03:39:34;19.40;99.90
33831;DHT22;20137;48.834;8.732;2023-07-09T03:42:00;19.40;99.90
33831;DHT22;20137;48.834;8.732;2023-07-09T03:44:26;19.50;99.90
33831;DHT22;20137;48.834;8.732;2023-07-09T03:46:51;19.50;99.90
33831;DHT22;20137;48.834;8.732;2023-07-09T03:49:17;19.50;99.90
33831;DHT22;20137;48.834;8.732;2023-07-09T03:51:43;19.50;99.90
33831;DHT22;20137;48.834;8.732;2023-07-09T03:54:09;19.50;99.90
33831;DHT22;20137;48.834;8.732;2023-07-09T03:56:34;19.50;99.90
33831;DHT22;20137;48.834;8.732;2023-07-09T03:59:02;19.50;99.90
33831;DHT22;20137;48.834;8.732;2023-07-09T04:01:28;19.50;99.90
33831;DHT22;20137;48.834;8.732;2023-07-09T04:03:53;19.60;99.90
33831;DHT22;20137;48.834;8.732;2023-07-09T04:06:19;19.80;99.90
33831;DHT22;20137;48.834;8.732;2023-07-09T04:08:45;20.00;99.90
33831;DHT22;20137;48.834;8.732;2023-07-09T04:11:10;20.20;99.90
33831;DHT22;20137;48.834;8.732;2023-07-09T04:13:36;20.40;99.90
33831;DHT22;20137;48.834;8.732;2023-07-09T04:16:02;20.50;99.90
33831;DHT22;20137;48.834;8.732;2023-07-09T04:18:28;20.60;99.90
33831;DHT22;20137;48.834;8.732;2023-07-09T04:20:54;20.80;99.90
33831;DHT22;20137;48.834;8.732;2023-07-09T04:23:20;20.80;99.90
33831;DHT22;20137;48.834;8.732;2023-07-09T04:25:48;20.90;99.90
33831;DHT22;20137;48.834;8.732;2023-07-09T04:28:15;21.00;99.90
33831;DHT22;20137;48.834;8.732;2023-07-09T04:30:49;21.00;99.90
33831;DHT22;20137;48.834;8.732;2023-07-09T04:33:17;21.10;99.90
33831;DHT22;20137;48.834;8.732;2023-07-09T04:35:44;21.10;99.90
33831;DHT22;20137;48.834;8.732;2023-07-09T04:38:10;21.20;99.90
33831;DHT22;20137;48.834;8.732;2023-07-09T04:40:36;21.30;99.90
33831;DHT22;20137;48.834;8.732;2023-07-09T04:43:01;21.40;99.90
33831;DHT22;20137;48.834;8.732;2023-07-09T04:45:27;21.60;99.90
33831;DHT22;20137;48.834;8.732;2023-07-09T04:47:53;21.80;99.90
33831;DHT22;20137;48.834;8.732;2023-07-09T04:50:19;22.20;99.90
33831;DHT22;20137;48.834;8.732;2023-07-09T04:52:44;22.90;99.00
33831;DHT22;20137;48.834;8.732;2023-07-09T04:55:10;23.80;97.40
33831;DHT22;20137;48.834;8.732;2023-07-09T04:57:36;24.80;96.00
33831;DHT22;20137;48.834;8.732;2023-07-09T05:00:03;25.70;94.70
33831;DHT22;20137;48.834;8.732;2023-07-09T05:02:30;26.30;93.80
33831;DHT22;20137;48.834;8.732;2023-07-09T05:04:56;26.90;92.60
33831;DHT22;20137;48.834;8.732;2023-07-09T05:07:22;27.50;91.90
33831;DHT22;20137;48.834;8.732;2023-07-09T05:09:48;28.10;91.10
33831;DHT22;20137;48.834;8.732;2023-07-09T05:12:14;28.50;90.60
33831;DHT22;20137;48.834;8.732;2023-07-09T05:14:40;29.10;89.40
33831;DHT22;20137;48.834;8.732;2023-07-09T05:17:06;29.40;88.30
33831;DHT22;20137;48.834;8.732;2023-07-09T05:19:33;29.80;87.20
33831;DHT22;20137;48.834;8.732;2023-07-09T05:21:58;29.90;86.30
33831;DHT22;20137;48.834;8.732;2023-07-09T05:24:24;30.00;86.10
33831;DHT22;20137;48.834;8.732;2023-07-09T05:26:50;30.40;85.30
33831;DHT22;20137;48.834;8.732;2023-07-09T05:29:15;30.60;85.10
33831;DHT22;20137;48.834;8.732;2023-07-09T05:31:41;30.70;84.20
33831;DHT22;20137;48.834;8.732;2023-07-09T05:34:08;31.00;82.90
33831;DHT22;20137;48.834;8.732;2023-07-09T05:36:34;31.20;81.80
33831;DHT22;20137;48.834;8.732;2023-07-09T05:39:00;31.40;81.10
33831;DHT22;20137;48.834;8.732;2023-07-09T05:41:25;31.50;80.20
33831;DHT22;20137;48.834;8.732;2023-07-09T05:43:52;30.90;80.60
33831;DHT22;20137;48.834;8.732;2023-07-09T05:46:18;30.50;81.00
33831;DHT22;20137;48.834;8.732;2023-07-09T05:48:44;30.10;81.40
33831;DHT22;20137;48.834;8.732;2023-07-09T05:51:09;29.60;82.00
33831;DHT22;20137;48.834;8.732;2023-07-09T05:53:35;29.30;82.80
33831;DHT22;20137;48.834;8.732;2023-07-09T05:56:01;29.00;83.40
33831;DHT22;20137;48.834;8.732;2023-07-09T05:58:27;28.80;84.00
33831;DHT22;20137;48.834;8.732;2023-07-09T06:00:53;28.60;84.20
33831;DHT22;20137;48.834;8.732;2023-07-09T06:03:20;28.50;84.70
33831;DHT22;20137;48.834;8.732;2023-07-09T06:05:47;28.60;85.20
33831;DHT22;20137;48.834;8.732;2023-07-09T06:08:21;28.50;84.40
33831;DHT22;20137;48.834;8.732;2023-07-09T06:11:03;28.40;84.70
33831;DHT22;20137;48.834;8.732;2023-07-09T06:13:30;28.70;84.00
33831;DHT22;20137;48.834;8.732;2023-07-09T06:15:57;28.90;83.70
33831;DHT22;20137;48.834;8.732;2023-07-09T06:18:26;29.00;83.80
33831;DHT22;20137;48.834;8.732;2023-07-09T06:20:58;29.00;84.20
33831;DHT22;20137;48.834;8.732;2023-07-09T06:23:24;28.90;83.60
33831;DHT22;20137;48.834;8.732;2023-07-09T06:25:50;29.00;82.00
33831;DHT22;20137;48.834;8.732;2023-07-09T06:28:24;29.10;81.50
33831;DHT22;20137;48.834;8.732;2023-07-09T06:30:51;29.20;81.70
33831;DHT22;20137;48.834;8.732;2023-07-09T06:33:18;29.20;81.30
33831;DHT22;20137;48.834;8.732;2023-07-09T06:35:52;29.30;81.90
33831;DHT22;20137;48.834;8.732;2023-07-09T06:38:19;29.30;81.30
33831;DHT22;20137;48.834;8.732;2023-07-09T06:40:45;29.30;82.20
33831;DHT22;20137;48.834;8.732;2023-07-09T06:43:11;29.40;82.10
33831;DHT22;20137;48.834;8.732;2023-07-09T06:45:37;29.50;80.70
33831;DHT22;20137;48.834;8.732;2023-07-09T06:48:03;29.60;81.00
33831;DHT22;20137;48.834;8.732;2023-07-09T06:50:29;29.70;80.40
33831;DHT22;20137;48.834;8.732;2023-07-09T06:52:58;29.60;82.40
33831;DHT22;20137;48.834;8.732;2023-07-09T06:55:23;29.60;83.40
33831;DHT22;20137;48.834;8.732;2023-07-09T06:57:49;29.50;82.90
33831;DHT22;20137;48.834;8.732;2023-07-09T07:00:15;29.50;83.00
33831;DHT22;20137;48.834;8.732;2023-07-09T07:02:41;29.40;83.60
33831;DHT22;20137;48.834;8.732;2023-07-09T07:05:08;29.30;82.70
33831;DHT22;20137;48.834;8.732;2023-07-09T07:07:34;29.20;84.30
33831;DHT22;20137;48.834;8.732;2023-07-09T07:09:59;29.20;84.40
33831;DHT22;20137;48.834;8.732;2023-07-09T07:12:27;29.10;83.40
33831;DHT22;20137;48.834;8.732;2023-07-09T07:14:54;29.20;82.60
33831;DHT22;20137;48.834;8.732;2023-07-09T07:17:21;29.30;82.80
33831;DHT22;20137;48.834;8.732;2023-07-09T07:19:49;29.40;82.30
33831;DHT22;20137;48.834;8.732;2023-07-09T07:22:14;29.30;83.00
33831;DHT22;20137;48.834;8.732;2023-07-09T07:24:40;29.20;82.60
33831;DHT22;20137;48.834;8.732;2023-07-09T07:27:06;29.20;82.50
33831;DHT22;20137;48.834;8.732;2023-07-09T07:29:33;29.10;83.20
33831;DHT22;20137;48.834;8.732;2023-07-09T07:31:58;29.00;82.40
33831;DHT22;20137;48.834;8.732;2023-07-09T07:34:26;29.00;83.70
33831;DHT22;20137;48.834;8.732;2023-07-09T07:36:52;28.80;83.90
33831;DHT22;20137;48.834;8.732;2023-07-09T07:39:18;29.00;84.60
33831;DHT22;20137;48.834;8.732;2023-07-09T07:41:43;29.00;85.60
33831;DHT22;20137;48.834;8.732;2023-07-09T07:44:09;28.80;84.00
33831;DHT22;20137;48.834;8.732;2023-07-09T07:46:35;28.80;84.40
33831;DHT22;20137;48.834;8.732;2023-07-09T07:49:00;29.00;83.20
33831;DHT22;20137;48.834;8.732;2023-07-09T07:51:26;29.20;83.80
33831;DHT22;20137;48.834;8.732;2023-07-09T07:53:54;29.30;83.10
33831;DHT22;20137;48.834;8.732;2023-07-09T07:56:20;29.50;81.60
33831;DHT22;20137;48.834;8.732;2023-07-09T07:58:46;29.20;82.30
33831;DHT22;20137;48.834;8.732;2023-07-09T08:01:12;29.20;81.80
33831;DHT22;20137;48.834;8.732;2023-07-09T08:03:37;29.30;81.70
33831;DHT22;20137;48.834;8.732;2023-07-09T08:06:03;29.50;81.00
33831;DHT22;20137;48.834;8.732;2023-07-09T08:08:29;29.40;81.10
33831;DHT22;20137;48.834;8.732;2023-07-09T08:11:03;29.60;80.70
33831;DHT22;20137;48.834;8.732;2023-07-09T08:13:34;29.80;80.40
33831;DHT22;20137;48.834;8.732;2023-07-09T08:16:01;29.90;79.20
33831;DHT22;20137;48.834;8.732;2023-07-09T08:18:27;29.80;80.00
33831;DHT22;20137;48.834;8.732;2023-07-09T08:20:55;29.80;80.60
33831;DHT22;20137;48.834;8.732;2023-07-09T08:23:21;29.80;80.00
33831;DHT22;20137;48.834;8.732;2023-07-09T08:25:54;29.80;79.50
33831;DHT22;20137;48.834;8.732;2023-07-09T08:28:20;29.90;80.00
33831;DHT22;20137;48.834;8.732;2023-07-09T08:30:46;30.10;79.60
33831;DHT22;20137;48.834;8.732;2023-07-09T08:33:11;30.30;81.30
33831;DHT22;20137;48.834;8.732;2023-07-09T08:35:37;30.40;80.40
33831;DHT22;20137;48.834;8.732;2023-07-09T08:38:03;30.60;79.30
33831;DHT22;20137;48.834;8.732;2023-07-09T08:40:29;30.70;79.60
33831;DHT22;20137;48.834;8.732;2023-07-09T08:43:05;30.80;79.20
33831;DHT22;20137;48.834;8.732;2023-07-09T08:48:29;30.50;79.30
33831;DHT22;20137;48.834;8.732;2023-07-09T08:51:02;30.60;80.10
33831;DHT22;20137;48.834;8.732;2023-07-09T08:53:35;30.60;78.50
33831;DHT22;20137;48.834;8.732;2023-07-09T08:56:02;30.70;79.40
33831;DHT22;20137;48.834;8.732;2023-07-09T08:58:29;30.50;78.70
33831;DHT22;20137;48.834;8.732;2023-07-09T09:00:59;30.90;77.90
33831;DHT22;20137;48.834;8.732;2023-07-09T09:03:40;31.00;78.00
33831;DHT22;20137;48.834;8.732;2023-07-09T09:06:16;31.10;77.80
33831;DHT22;20137;48.834;8.732;2023-07-09T09:09:02;31.10;77.30
33831;DHT22;20137;48.834;8.732;2023-07-09T09:11:45;31.10;77.10
33831;DHT22;20137;48.834;8.732;2023-07-09T09:16:46;31.10;75.60
33831;DHT22;20137;48.834;8.732;2023-07-09T09:19:27;31.10;76.70
33831;DHT22;20137;48.834;8.732;2023-07-09T09:21:58;31.30;75.90
33831;DHT22;20137;48.834;8.732;2023-07-09T09:24:31;31.40;75.80
33831;DHT22;20137;48.834;8.732;2023-07-09T09:26:58;31.50;74.90
33831;DHT22;20137;48.834;8.732;2023-07-09T09:29:25;31.70;74.70
33831;DHT22;20137;48.834;8.732;2023-07-09T09:31:54;31.70;74.30
33831;DHT22;20137;48.834;8.732;2023-07-09T09:34:26;31.70;74.20
33831;DHT22;20137;48.834;8.732;2023-07-09T09:36:53;31.80;74.90
33831;DHT22;20137;48.834;8.732;2023-07-09T09:39:20;31.90;75.10
33831;DHT22;20137;48.834;8.732;2023-07-09T09:41:47;31.90;74.10
33831;DHT22;20137;48.834;8.732;2023-07-09T09:44:29;31.90;73.50
33831;DHT22;20137;48.834;8.732;2023-07-09T09:46:57;32.00;75.90
33831;DHT22;20137;48.834;8.732;2023-07-09T09:49:23;32.00;73.30
33831;DHT22;20137;48.834;8.732;2023-07-09T09:51:49;32.00;72.30
33831;DHT22;20137;48.834;8.732;2023-07-09T09:54:20;31.90;73.50
33831;DHT22;20137;48.834;8.732;2023-07-09T09:56:49;31.90;74.20
33831;DHT22;20137;48.834;8.732;2023-07-09T09:59:29;32.00;73.50
33831;DHT22;20137;48.834;8.732;2023-07-09T10:02:01;32.00;73.50
33831;DHT22;20137;48.834;8.732;2023-07-09T10:04:28;32.10;72.90
33831;DHT22;20137;48.834;8.732;2023-07-09T10:07:03;32.20;71.90
33831;DHT22;20137;48.834;8.732;2023-07-09T10:09:54;32.00;71.20
33831;DHT22;20137;48.834;8.732;2023-07-09T10:15:58;32.10;71.40
33831;DHT22;20137;48.834;8.732;2023-07-09T10:21:10;32.40;71.60
33831;DHT22;20137;48.834;8.732;2023-07-09T10:26:44;32.60;69.10
33831;DHT22;20137;48.834;8.732;2023-07-09T10:34:31;32.80;68.50
33831;DHT22;20137;48.834;8.732;2023-07-09T10:39:33;32.90;64.90
33831;DHT22;20137;48.834;8.732;2023-07-09T10:42:02;32.80;64.30
33831;DHT22;20137;48.834;8.732;2023-07-09T10:44:34;32.80;66.80
33831;DHT22;20137;48.834;8.732;2023-07-09T10:47:06;33.00;67.40
33831;DHT22;20137;48.834;8.732;2023-07-09T10:49:38;33.10;66.60
33831;DHT22;20137;48.834;8.732;2023-07-09T10:52:25;33.20;65.70
33831;DHT22;20137;48.834;8.732;2023-07-09T10:57:53;32.50;62.40
33831;DHT22;20137;48.834;8.732;2023-07-09T11:00:32;32.60;63.70
33831;DHT22;20137;48.834;8.732;2023-07-09T11:03:02;32.80;64.90
33831;DHT22;20137;48.834;8.732;2023-07-09T11:05:29;32.90;64.80
33831;DHT22;20137;48.834;8.732;2023-07-09T11:08:06;33.00;63.10
33831;DHT22;20137;48.834;8.732;2023-07-09T11:10:44;33.00;63.00
33831;DHT22;20137;48.834;8.732;2023-07-09T11:15:56;33.20;63.50
33831;DHT22;20137;48.834;8.732;2023-07-09T11:18:29;33.20;63.80
33831;DHT22;20137;48.834;8.732;2023-07-09T11:21:16;33.50;65.60
33831;DHT22;20137;48.834;8.732;2023-07-09T11:23:57;33.50;62.70
33831;DHT22;20137;48.834;8.732;2023-07-09T11:26:33;33.50;62.00
33831;DHT22;20137;48.834;8.732;2023-07-09T11:31:38;33.50;63.90
33831;DHT22;20137;48.834;8.732;2023-07-09T11:39:27;33.70;60.50
33831;DHT22;20137;48.834;8.732;2023-07-09T11:41:54;33.70;62.90
33831;DHT22;20137;48.834;8.732;2023-07-09T11:44:29;33.50;61.90
33831;DHT22;20137;48.834;8.732;2023-07-09T11:47:24;33.10;62.40
33831;DHT22;20137;48.834;8.732;2023-07-09T11:49:59;33.10;62.50
33831;DHT22;20137;48.834;8.732;2023-07-09T11:52:39;33.20;61.70
33831;DHT22;20137;48.834;8.732;2023-07-09T11:55:28;33.40;62.50
33831;DHT22;20137;48.834;8.732;2023-07-09T11:57:59;33.60;63.10
33831;DHT22;20137;48.834;8.732;2023-07-09T12:00:28;33.80;62.70
33831;DHT22;20137;48.834;8.732;2023-07-09T12:02:55;34.00;61.10
33831;DHT22;20137;48.834;8.732;2023-07-09T12:05:26;34.00;61.50
33831;DHT22;20137;48.834;8.732;2023-07-09T12:07:54;34.10;62.40
33831;DHT22;20137;48.834;8.732;2023-07-09T12:10:23;34.40;63.50
33831;DHT22;20137;48.834;8.732;2023-07-09T12:12:54;34.50;61.20
33831;DHT22;20137;48.834;8.732;2023-07-09T12:15:27;34.70;59.30
33831;DHT22;20137;48.834;8.732;2023-07-09T12:17:58;34.60;61.40
33831;DHT22;20137;48.834;8.732;2023-07-09T12:20:29;34.40;58.10
33831;DHT22;20137;48.834;8.732;2023-07-09T12:22:55;34.40;60.30
33831;DHT22;20137;48.834;8.732;2023-07-09T12:25:24;34.70;60.70
33831;DHT22;20137;48.834;8.732;2023-07-09T12:27:50;34.90;58.10
33831;DHT22;20137;48.834;8.732;2023-07-09T12:30:16;34.90;57.90
33831;DHT22;20137;48.834;8.732;2023-07-09T12:32:50;34.90;57.80
33831;DHT22;20137;48.834;8.732;2023-07-09T12:35:17;34.70;57.80
33831;DHT22;20137;48.834;8.732;2023-07-09T12:37:45;34.80;59.50
33831;DHT22;20137;48.834;8.732;2023-07-09T12:40:17;34.90;57.00
33831;DHT22;20137;48.834;8.732;2023-07-09T12:42:45;34.50;56.90
33831;DHT22;20137;48.834;8.732;2023-07-09T12:45:19;34.60;56.70
33831;DHT22;20137;48.834;8.732;2023-07-09T12:47:46;34.70;57.70
33831;DHT22;20137;48.834;8.732;2023-07-09T12:50:33;34.70;57.90
33831;DHT22;20137;48.834;8.732;2023-07-09T12:53:13;35.10;57.60
33831;DHT22;20137;48.834;8.732;2023-07-09T12:55:41;35.40;57.30
33831;DHT22;20137;48.834;8.732;2023-07-09T12:58:10;35.80;58.60
33831;DHT22;20137;48.834;8.732;2023-07-09T13:00:37;36.10;56.20
33831;DHT22;20137;48.834;8.732;2023-07-09T13:03:03;36.40;55.30
33831;DHT22;20137;48.834;8.732;2023-07-09T13:05:36;36.20;54.40
33831;DHT22;20137;48.834;8.732;2023-07-09T13:08:02;36.20;55.10
33831;DHT22;20137;48.834;8.732;2023-07-09T13:10:30;36.20;54.20
33831;DHT22;20137;48.834;8.732;2023-07-09T13:13:01;36.30;55.40
33831;DHT22;20137;48.834;8.732;2023-07-09T13:15:31;36.50;54.20
33831;DHT22;20137;48.834;8.732;2023-07-09T13:18:03;36.70;52.70
33831;DHT22;20137;48.834;8.732;2023-07-09T13:20:31;36.60;52.20
33831;DHT22;20137;48.834;8.732;2023-07-09T13:22:58;36.90;50.90
33831;DHT22;20137;48.834;8.732;2023-07-09T13:25:24;37.00;51.60
33831;DHT22;20137;48.834;8.732;2023-07-09T13:27:51;37.20;53.10
33831;DHT22;20137;48.834;8.732;2023-07-09T13:30:16;37.10;51.10
33831;DHT22;20137;48.834;8.732;2023-07-09T13:32:45;37.10;51.30
33831;DHT22;20137;48.834;8.732;2023-07-09T13:35:17;36.70;51.70
33831;DHT22;20137;48.834;8.732;2023-07-09T13:37:45;36.40;50.60
33831;DHT22;20137;48.834;8.732;2023-07-09T13:40:15;36.20;52.00
33831;DHT22;20137;48.834;8.732;2023-07-09T13:42:43;36.20;51.70
33831;DHT22;20137;48.834;8.732;2023-07-09T13:45:21;36.50;53.20
33831;DHT22;20137;48.834;8.732;2023-07-09T13:47:49;36.80;53.00
33831;DHT22;20137;48.834;8.732;2023-07-09T13:50:16;37.00;52.40
33831;DHT22;20137;48.834;8.732;2023-07-09T13:52:42;37.10;53.90
33831;DHT22;20137;48.834;8.732;2023-07-09T13:55:17;37.30;52.80
33831;DHT22;20137;48.834;8.732;2023-07-09T13:57:43;37.50;52.20
33831;DHT22;20137;48.834;8.732;2023-07-09T14:00:11;37.50;50.50
33831;DHT22;20137;48.834;8.732;2023-07-09T14:02:37;37.20;49.90
33831;DHT22;20137;48.834;8.732;2023-07-09T14:05:05;37.00;50.30
33831;DHT22;20137;48.834;8.732;2023-07-09T14:07:34;36.80;49.10
33831;DHT22;20137;48.834;8.732;2023-07-09T14:10:02;36.60;50.30
33831;DHT22;20137;48.834;8.732;2023-07-09T14:12:29;36.70;51.80
33831;DHT22;20137;48.834;8.732;2023-07-09T14:15:12;36.80;50.30
33831;DHT22;20137;48.834;8.732;2023-07-09T14:17:37;37.20;49.80
33831;DHT22;20137;48.834;8.732;2023-07-09T14:20:04;37.50;50.30
33831;DHT22;20137;48.834;8.732;2023-07-09T14:22:33;37.60;49.20
33831;DHT22;20137;48.834;8.732;2023-07-09T14:25:00;37.60;49.20
33831;DHT22;20137;48.834;8.732;2023-07-09T14:27:26;37.50;49.30
33831;DHT22;20137;48.834;8.732;2023-07-09T14:29:52;37.60;49.00
33831;DHT22;20137;48.834;8.732;2023-07-09T14:32:36;37.50;48.80
33831;DHT22;20137;48.834;8.732;2023-07-09T14:37:55;37.70;50.20
33831;DHT22;20137;48.834;8.732;2023-07-09T14:40:21;37.80;51.60
33831;DHT22;20137;48.834;8.732;2023-07-09T14:42:48;38.00;50.50
33831;DHT22;20137;48.834;8.732;2023-07-09T14:45:25;38.00;48.90
33831;DHT22;20137;48.834;8.732;2023-07-09T14:47:52;37.70;49.10
33831;DHT22;20137;48.834;8.732;2023-07-09T14:50:20;37.40;49.60
33831;DHT22;20137;48.834;8.732;2023-07-09T14:52:47;36.90;49.20
33831;DHT22;20137;48.834;8.732;2023-07-09T14:55:18;36.90;49.90
33831;DHT22;20137;48.834;8.732;2023-07-09T14:57:45;37.30;49.90
33831;DHT22;20137;48.834;8.732;2023-07-09T15:00:15;37.50;49.90
33831;DHT22;20137;48.834;8.732;2023-07-09T15:02:43;37.70;50.00
33831;DHT22;20137;48.834;8.732;2023-07-09T15:05:20;37.70;50.40
33831;DHT22;20137;48.834;8.732;2023-07-09T15:07:46;37.60;49.70
33831;DHT22;20137;48.834;8.732;2023-07-09T15:10:20;37.50;49.60
33831;DHT22;20137;48.834;8.732;2023-07-09T15:12:48;37.20;51.10
33831;DHT22;20137;48.834;8.732;2023-07-09T15:15:26;36.90;50.40
33831;DHT22;20137;48.834;8.732;2023-07-09T15:17:53;36.80;51.40
33831;DHT22;20137;48.834;8.732;2023-07-09T15:20:25;36.70;51.00
33831;DHT22;20137;48.834;8.732;2023-07-09T15:22:53;36.50;51.30
33831;DHT22;20137;48.834;8.732;2023-07-09T15:25:23;36.50;52.40
33831;DHT22;20137;48.834;8.732;2023-07-09T15:27:49;36.40;51.70
33831;DHT22;20137;48.834;8.732;2023-07-09T15:30:18;36.30;50.70
33831;DHT22;20137;48.834;8.732;2023-07-09T15:32:46;36.00;51.00
33831;DHT22;20137;48.834;8.732;2023-07-09T15:35:12;35.90;51.90
33831;DHT22;20137;48.834;8.732;2023-07-09T15:37:39;35.90;51.30
33831;DHT22;20137;48.834;8.732;2023-07-09T15:40:47;35.90;51.90
33831;DHT22;20137;48.834;8.732;2023-07-09T15:43:06;35.80;51.40
33831;DHT22;20137;48.834;8.732;2023-07-09T15:45:41;35.60;51.50
33831;DHT22;20137;48.834;8.732;2023-07-09T15:51:10;35.30;51.50
33831;DHT22;20137;48.834;8.732;2023-07-09T15:53:37;35.00;52.60
33831;DHT22;20137;48.834;8.732;2023-07-09T15:58:47;34.70;52.50
33831;DHT22;20137;48.834;8.732;2023-07-09T16:01:14;34.60;53.80
33831;DHT22;20137;48.834;8.732;2023-07-09T16:03:51;34.40;54.90
33831;DHT22;20137;48.834;8.732;2023-07-09T16:06:18;34.00;56.30
33831;DHT22;20137;48.834;8.732;2023-07-09T16:08:45;33.60;57.10
33831;DHT22;20137;48.834;8.732;2023-07-09T16:11:17;33.20;58.00
33831;DHT22;20137;48.834;8.732;2023-07-09T16:13:44;33.00;58.90
33831;DHT22;20137;48.834;8.732;2023-07-09T16:16:16;32.90;58.80
33831;DHT22;20137;48.834;8.732;2023-07-09T16:18:42;32.80;59.50
33831;DHT22;20137;48.834;8.732;2023-07-09T16:23:47;32.70;60.10
33831;DHT22;20137;48.834;8.732;2023-07-09T16:26:13;32.80;60.30
33831;DHT22;20137;48.834;8.732;2023-07-09T16:28:39;32.80;60.00
33831;DHT22;20137;48.834;8.732;2023-07-09T16:31:05;32.90;60.20
33831;DHT22;20137;48.834;8.732;2023-07-09T16:33:30;33.00;60.30
33831;DHT22;20137;48.834;8.732;2023-07-09T16:35:56;33.10;60.00
33831;DHT22;20137;48.834;8.732;2023-07-09T16:38:22;33.10;60.20
33831;DHT22;20137;48.834;8.732;2023-07-09T16:40:50;33.10;60.60